createdAt,value
2022-12-18T00:01:06.833Z,50.58
2022-12-18T00:03:37.022Z,46.38
2022-12-18T00:06:03.804Z,52.15
2022-12-18T00:08:30.197Z,63.53
2022-12-18T00:10:59.798Z,55.28
2022-12-18T00:13:28.186Z,54.05
2022-12-18T00:15:54.734Z,62.05
2022-12-18T00:18:23.231Z,58.55
2022-12-18T00:20:49.643Z,61.42
2022-12-18T00:23:16.108Z,55.92
2022-12-18T00:25:42.543Z,52.08
2022-12-18T00:28:08.990Z,57.58
2022-12-18T00:30:35.421Z,51.55
2022-12-18T00:33:01.851Z,59.50
2022-12-18T00:35:28.614Z,63.78
2022-12-18T00:37:55.028Z,62.10
2022-12-18T00:40:21.305Z,61.47
2022-12-18T00:42:56.794Z,53.30
2022-12-18T00:45:24.074Z,56.28
2022-12-18T00:47:50.511Z,54.05
2022-12-18T00:50:16.872Z,54.03
2022-12-18T00:52:43.659Z,58.22
2022-12-18T00:55:10.408Z,54.28
2022-12-18T00:57:36.790Z,52.42
2022-12-18T01:00:04.809Z,53.35
2022-12-18T01:02:31.497Z,55.30
2022-12-18T01:04:58.002Z,58.08
2022-12-18T01:07:24.521Z,57.22
2022-12-18T01:09:50.956Z,53.55
2022-12-18T01:12:17.318Z,55.35
2022-12-18T01:14:43.653Z,57.53
2022-12-18T01:17:09.996Z,52.15
2022-12-18T01:19:36.645Z,57.50
2022-12-18T01:22:03.240Z,54.70
2022-12-18T01:24:29.764Z,52.22
2022-12-18T01:26:58.212Z,50.08
2022-12-18T01:29:24.759Z,54.65
2022-12-18T01:31:51.251Z,56.58
2022-12-18T01:34:17.743Z,54.70
2022-12-18T01:36:44.205Z,56.42
2022-12-18T01:39:12.189Z,56.70
2022-12-18T01:41:57.043Z,52.47
2022-12-18T01:44:41.883Z,57.72
2022-12-18T01:47:08.296Z,52.92
2022-12-18T01:49:34.772Z,54.92
2022-12-18T01:52:01.248Z,53.63
2022-12-18T01:54:27.644Z,53.83
2022-12-18T01:56:54.065Z,54.85
2022-12-18T01:59:20.516Z,50.90
2022-12-18T02:01:46.968Z,54.22
2022-12-18T02:04:19.795Z,48.75
2022-12-18T02:06:46.462Z,47.80
2022-12-18T02:09:15.879Z,48.53
2022-12-18T02:11:57.605Z,48.10
2022-12-18T02:14:32.863Z,48.03
2022-12-18T02:17:05.884Z,46.25
2022-12-18T02:19:50.900Z,54.20
2022-12-18T02:22:36.081Z,46.03
2022-12-18T02:25:22.712Z,46.75
2022-12-18T02:27:50.195Z,44.58
2022-12-18T02:30:16.686Z,51.92
2022-12-18T02:32:46.001Z,48.70
2022-12-18T02:35:14.769Z,53.53
2022-12-18T02:37:43.160Z,41.22
2022-12-18T02:40:10.626Z,47.35
2022-12-18T02:42:37.160Z,49.40
2022-12-18T02:45:03.612Z,45.40
2022-12-18T02:47:32.007Z,47.67
2022-12-18T02:49:58.340Z,54.20
2022-12-18T02:52:46.928Z,48.35
2022-12-18T02:55:32.004Z,51.33
2022-12-18T02:58:16.704Z,55.35
2022-12-18T03:00:47.283Z,51.50
2022-12-18T03:03:28.246Z,44.83
2022-12-18T03:08:31.458Z,41.17
2022-12-18T03:11:05.967Z,46.95
2022-12-18T03:13:47.284Z,50.05
2022-12-18T03:16:18.293Z,43.13
2022-12-18T03:21:11.926Z,48.17
2022-12-18T03:23:41.643Z,48.10
2022-12-18T03:26:10.364Z,46.30
2022-12-18T03:28:39.781Z,47.00
2022-12-18T03:31:08.096Z,44.28
2022-12-18T03:33:37.875Z,50.85
2022-12-18T03:36:04.867Z,49.80
2022-12-18T03:38:31.592Z,53.70
2022-12-18T03:41:02.016Z,42.30
2022-12-18T03:43:28.566Z,44.10
2022-12-18T03:46:00.283Z,48.72
2022-12-18T03:48:26.646Z,42.38
2022-12-18T03:50:56.232Z,46.28
2022-12-18T03:53:41.824Z,37.00
2022-12-18T03:56:09.943Z,46.50
2022-12-18T03:58:38.383Z,48.22
2022-12-18T04:01:10.204Z,40.33
2022-12-18T04:03:36.998Z,47.67
2022-12-18T04:06:03.933Z,39.60
2022-12-18T04:08:31.976Z,43.75
2022-12-18T04:10:58.376Z,36.17
2022-12-18T04:13:25.942Z,43.00
2022-12-18T04:15:52.506Z,42.28
2022-12-18T04:18:19.515Z,41.17
2022-12-18T04:20:46.189Z,41.33
2022-12-18T04:23:12.737Z,36.45
2022-12-18T04:25:39.159Z,39.05
2022-12-18T04:28:06.129Z,43.90
2022-12-18T04:30:32.546Z,45.25
2022-12-18T04:32:58.916Z,36.80
2022-12-18T04:35:25.294Z,38.45
2022-12-18T04:37:51.632Z,39.33
2022-12-18T04:40:18.068Z,38.45
2022-12-18T04:42:44.497Z,38.33
2022-12-18T04:45:11.058Z,34.90
2022-12-18T04:47:37.671Z,29.95
2022-12-18T04:50:04.490Z,35.33
2022-12-18T04:52:31.985Z,30.80
2022-12-18T04:54:58.494Z,35.80
2022-12-18T04:57:24.942Z,32.42
2022-12-18T04:59:51.285Z,34.83
2022-12-18T05:02:17.761Z,33.00
2022-12-18T05:04:44.224Z,34.25
2022-12-18T05:07:10.623Z,27.58
2022-12-18T05:09:37.077Z,34.78
2022-12-18T05:12:03.552Z,36.60
2022-12-18T05:14:30.454Z,29.92
2022-12-18T05:17:00.655Z,30.15
2022-12-18T05:19:27.387Z,31.85
2022-12-18T05:21:53.658Z,30.05
2022-12-18T05:24:20.116Z,32.60
2022-12-18T05:26:46.497Z,35.83
2022-12-18T05:29:13.266Z,42.58
2022-12-18T05:31:40.482Z,31.52
2022-12-18T05:34:09.563Z,31.02
2022-12-18T05:36:37.181Z,27.85
2022-12-18T05:39:03.776Z,31.33
2022-12-18T05:41:30.896Z,27.95
2022-12-18T05:43:57.476Z,30.13
2022-12-18T05:46:23.838Z,29.55
2022-12-18T05:48:51.236Z,27.73
2022-12-18T05:51:18.710Z,28.65
2022-12-18T05:53:45.220Z,25.08
2022-12-18T05:56:13.025Z,27.65
2022-12-18T05:58:39.542Z,28.40
2022-12-18T06:01:13.156Z,29.33
2022-12-18T06:03:39.968Z,26.35
2022-12-18T06:06:20.453Z,28.50
2022-12-18T06:08:47.474Z,41.10
2022-12-18T06:11:14.506Z,27.45
2022-12-18T06:13:41.346Z,32.10
2022-12-18T06:16:09.211Z,28.85
2022-12-18T06:18:35.596Z,25.73
2022-12-18T06:21:01.956Z,25.23
2022-12-18T06:23:28.423Z,25.60
2022-12-18T06:25:54.903Z,23.75
2022-12-18T06:28:21.550Z,27.98
2022-12-18T06:30:49.201Z,27.27
2022-12-18T06:33:15.975Z,27.70
2022-12-18T06:35:42.504Z,26.52
2022-12-18T06:38:08.877Z,25.80
2022-12-18T06:40:35.243Z,31.38
2022-12-18T06:43:01.577Z,25.13
2022-12-18T06:45:27.993Z,26.45
2022-12-18T06:47:54.748Z,30.00
2022-12-18T06:50:21.136Z,25.98
2022-12-18T06:52:47.411Z,28.88
2022-12-18T06:55:13.757Z,25.35
2022-12-18T06:57:40.072Z,26.20
2022-12-18T07:00:06.898Z,28.85
2022-12-18T07:02:33.692Z,24.55
2022-12-18T07:05:00.127Z,23.73
2022-12-18T07:07:26.553Z,26.45
2022-12-18T07:09:52.962Z,28.60
2022-12-18T07:12:19.540Z,26.88
2022-12-18T07:14:45.891Z,24.98
2022-12-18T07:17:12.282Z,26.75
2022-12-18T07:19:38.676Z,30.42
2022-12-18T07:22:04.971Z,26.70
2022-12-18T07:24:33.702Z,26.98
2022-12-18T07:27:00.575Z,24.15
2022-12-18T07:29:26.931Z,28.15
2022-12-18T07:31:53.319Z,28.52
2022-12-18T07:34:19.751Z,28.15
2022-12-18T07:36:46.088Z,28.27
2022-12-18T07:39:12.897Z,21.88
2022-12-18T07:41:43.748Z,28.77
2022-12-18T07:44:13.621Z,26.77
2022-12-18T07:46:40.449Z,31.60
2022-12-18T07:49:06.845Z,36.25
2022-12-18T07:51:33.148Z,29.83
2022-12-18T07:53:59.536Z,24.15
2022-12-18T07:56:28.556Z,30.77
2022-12-18T07:58:55.596Z,23.98
2022-12-18T08:01:22.133Z,28.23
2022-12-18T08:03:48.585Z,24.73
2022-12-18T08:06:16.548Z,28.00
2022-12-18T08:08:43.279Z,23.98
2022-12-18T08:11:09.752Z,27.67
2022-12-18T08:13:36.238Z,24.40
2022-12-18T08:16:04.310Z,26.10
2022-12-18T08:18:32.719Z,27.83
2022-12-18T08:20:59.114Z,24.33
2022-12-18T08:23:28.623Z,25.90
2022-12-18T08:25:55.203Z,23.85
2022-12-18T08:28:21.693Z,24.73
2022-12-18T08:30:52.188Z,23.50
2022-12-18T08:33:18.510Z,24.95
2022-12-18T08:35:46.127Z,25.58
2022-12-18T08:38:12.819Z,25.67
2022-12-18T08:40:39.150Z,25.17
2022-12-18T08:43:24.245Z,29.15
2022-12-18T08:45:50.698Z,23.83
2022-12-18T08:48:22.033Z,24.35
2022-12-18T08:50:58.886Z,29.95
2022-12-18T08:53:25.158Z,26.20
2022-12-18T08:55:51.754Z,26.42
2022-12-18T08:58:18.063Z,25.60
2022-12-18T09:00:44.392Z,22.30
2022-12-18T09:03:17.689Z,25.35
2022-12-18T09:05:44.028Z,27.10
2022-12-18T09:08:10.340Z,24.33
2022-12-18T09:10:43.562Z,29.13
2022-12-18T09:13:10.651Z,23.13
2022-12-18T09:15:41.583Z,25.92
2022-12-18T09:20:34.612Z,20.38
2022-12-18T09:23:00.969Z,22.40
2022-12-18T09:25:33.053Z,27.73
2022-12-18T09:28:15.702Z,23.77
2022-12-18T09:30:43.461Z,24.30
2022-12-18T09:33:10.046Z,25.95
2022-12-18T09:35:37.552Z,24.75
2022-12-18T09:38:03.888Z,22.65
2022-12-18T09:40:33.703Z,23.75
2022-12-18T09:43:01.389Z,27.33
2022-12-18T09:45:28.229Z,26.30
2022-12-18T09:47:55.327Z,26.73
2022-12-18T09:50:27.940Z,19.35
2022-12-18T09:52:55.903Z,23.63
2022-12-18T09:55:33.596Z,23.45
2022-12-18T09:58:08.466Z,25.90
2022-12-18T10:00:35.236Z,24.63
2022-12-18T10:03:16.361Z,24.42
2022-12-18T10:06:01.790Z,29.65
2022-12-18T10:08:46.891Z,23.55
2022-12-18T10:11:22.202Z,24.13
2022-12-18T10:13:53.589Z,25.15
2022-12-18T10:16:19.877Z,25.25
2022-12-18T10:18:58.785Z,24.50
2022-12-18T10:21:29.212Z,28.30
2022-12-18T10:24:14.231Z,23.67
2022-12-18T10:26:41.899Z,23.27
2022-12-18T10:29:15.803Z,19.83
2022-12-18T10:31:42.301Z,21.27
2022-12-18T10:34:12.497Z,22.17
2022-12-18T10:36:39.191Z,23.55
2022-12-18T10:39:23.377Z,19.80
2022-12-18T10:41:50.792Z,23.23
2022-12-18T10:44:21.769Z,23.67
2022-12-18T10:49:27.817Z,22.48
2022-12-18T10:52:13.136Z,26.05
2022-12-18T10:54:39.779Z,24.17
2022-12-18T10:57:29.172Z,24.80
2022-12-18T10:59:56.531Z,21.88
2022-12-18T11:02:28.337Z,24.15
2022-12-18T11:04:54.817Z,23.88
2022-12-18T11:07:21.123Z,23.00
2022-12-18T11:10:00.308Z,22.35
2022-12-18T11:12:29.408Z,18.50
2022-12-18T11:14:57.405Z,20.33
2022-12-18T11:17:29.044Z,20.08
2022-12-18T11:19:56.457Z,20.80
2022-12-18T11:22:28.525Z,25.40
2022-12-18T11:25:30.688Z,29.98
2022-12-18T11:27:53.530Z,23.20
2022-12-18T11:30:24.457Z,25.80
2022-12-18T11:35:26.366Z,63.70
2022-12-18T11:37:59.583Z,23.50
2022-12-18T11:40:39.336Z,21.80
2022-12-18T11:43:07.287Z,20.13
2022-12-18T11:45:40.665Z,25.63
2022-12-18T11:48:07.068Z,22.63
2022-12-18T11:50:49.551Z,23.17
2022-12-18T11:53:15.894Z,22.20
2022-12-18T11:55:48.152Z,25.20
2022-12-18T11:58:31.319Z,24.25
2022-12-18T12:01:24.351Z,21.05
2022-12-18T12:03:59.967Z,20.80
2022-12-18T12:06:39.616Z,24.55
2022-12-18T12:09:11.839Z,20.80
2022-12-18T12:11:44.339Z,27.05
2022-12-18T12:14:29.248Z,20.10
2022-12-18T12:17:03.063Z,19.90
2022-12-18T12:19:36.940Z,19.38
2022-12-18T12:22:18.504Z,21.33
2022-12-18T12:24:50.931Z,21.77
2022-12-18T12:27:17.228Z,20.70
2022-12-18T12:29:50.522Z,20.77
2022-12-18T12:32:37.099Z,20.27
2022-12-18T12:35:09.828Z,19.55
2022-12-18T12:37:55.496Z,19.73
2022-12-18T12:40:51.188Z,21.65
2022-12-18T12:43:16.113Z,20.33
2022-12-18T12:46:01.085Z,20.60
2022-12-18T12:48:46.030Z,21.60
2022-12-18T12:51:16.667Z,21.83
2022-12-18T12:53:43.349Z,23.00
2022-12-18T12:56:12.748Z,24.50
2022-12-18T12:58:42.726Z,22.50
2022-12-18T13:01:32.949Z,24.42
2022-12-18T13:04:18.742Z,20.83
2022-12-18T13:06:54.864Z,23.38
2022-12-18T13:09:21.511Z,23.67
2022-12-18T13:12:06.914Z,23.15
2022-12-18T13:14:36.143Z,23.55
2022-12-18T13:17:26.115Z,21.48
2022-12-18T13:19:53.487Z,19.73
2022-12-18T13:22:24.056Z,22.20
2022-12-18T13:24:50.692Z,26.27
2022-12-18T13:27:36.650Z,22.20
2022-12-18T13:30:03.095Z,23.42
2022-12-18T13:32:29.602Z,21.35
2022-12-18T13:35:28.132Z,23.25
2022-12-18T13:37:55.541Z,20.67
2022-12-18T13:40:42.510Z,21.50
2022-12-18T13:43:21.223Z,23.00
2022-12-18T13:45:59.493Z,23.35
2022-12-18T13:48:26.939Z,24.35
2022-12-18T13:50:59.256Z,23.60
2022-12-18T13:53:27.387Z,19.95
2022-12-18T13:55:54.119Z,19.52
2022-12-18T13:58:20.420Z,26.08
2022-12-18T14:00:47.608Z,19.58
2022-12-18T14:03:27.267Z,19.38
2022-12-18T14:05:55.416Z,22.08
2022-12-18T14:08:21.929Z,21.70
2022-12-18T14:10:50.422Z,21.55
2022-12-18T14:13:20.590Z,18.02
2022-12-18T14:15:48.561Z,21.88
2022-12-18T14:18:24.061Z,21.42
2022-12-18T14:20:53.101Z,21.42
2022-12-18T14:23:30.368Z,21.65
2022-12-18T14:25:59.657Z,21.35
2022-12-18T14:28:30.418Z,21.73
2022-12-18T14:30:57.278Z,22.95
2022-12-18T14:33:25.325Z,21.15
2022-12-18T14:35:57.668Z,23.52
2022-12-18T14:38:30.547Z,29.50
2022-12-18T14:41:26.461Z,41.10
2022-12-18T14:43:54.051Z,26.50
2022-12-18T14:46:26.434Z,32.28
2022-12-18T14:48:53.107Z,23.30
2022-12-18T14:51:26.435Z,26.73
2022-12-18T14:53:57.024Z,24.48
2022-12-18T14:56:25.188Z,23.73
2022-12-18T14:58:53.854Z,24.50
2022-12-18T15:01:21.816Z,29.08
2022-12-18T15:03:48.300Z,22.35
2022-12-18T15:06:32.621Z,25.75
2022-12-18T15:09:00.315Z,44.20
2022-12-18T15:11:41.518Z,40.40
2022-12-18T15:14:26.753Z,27.40
2022-12-18T15:16:54.619Z,46.50
2022-12-18T15:19:22.148Z,35.13
2022-12-18T15:21:48.553Z,27.10
2022-12-18T15:24:19.079Z,27.83
2022-12-18T15:26:45.521Z,30.63
2022-12-18T15:29:20.912Z,24.00
2022-12-18T15:31:58.604Z,23.58
2022-12-18T15:34:26.151Z,30.80
2022-12-18T15:36:53.055Z,24.77
2022-12-18T15:39:19.364Z,29.17
2022-12-18T15:42:05.879Z,25.88
2022-12-18T15:44:32.335Z,28.05
2022-12-18T15:46:58.862Z,20.67
2022-12-18T15:49:25.284Z,26.50
2022-12-18T15:52:00.835Z,23.58
2022-12-18T15:54:45.610Z,25.77
2022-12-18T15:57:23.811Z,23.92
2022-12-18T15:59:50.806Z,24.23
2022-12-18T16:02:18.223Z,25.02
2022-12-18T16:04:45.012Z,24.30
2022-12-18T16:07:15.094Z,33.78
2022-12-18T16:09:45.664Z,30.25
2022-12-18T16:12:29.987Z,43.60
2022-12-18T16:14:56.351Z,62.65
2022-12-18T16:17:22.646Z,41.08
2022-12-18T16:19:49.007Z,30.27
2022-12-18T16:22:18.841Z,30.00
2022-12-18T16:24:45.172Z,31.67
2022-12-18T16:27:11.480Z,25.75
2022-12-18T16:29:37.740Z,37.88
2022-12-18T16:32:04.170Z,24.13
2022-12-18T16:34:35.284Z,27.63
2022-12-18T16:37:05.778Z,28.58
2022-12-18T16:39:34.196Z,33.20
2022-12-18T16:42:01.038Z,25.98
2022-12-18T16:44:31.182Z,31.00
2022-12-18T16:47:02.541Z,32.08
2022-12-18T16:49:29.469Z,27.30
2022-12-18T16:51:55.763Z,29.45
2022-12-18T16:54:22.056Z,23.75
2022-12-18T16:56:50.386Z,22.65
2022-12-18T16:59:16.691Z,25.10
2022-12-18T17:01:44.362Z,31.30
2022-12-18T17:04:10.820Z,28.65
2022-12-18T17:06:40.248Z,25.75
2022-12-18T17:09:07.979Z,26.75
2022-12-18T17:11:34.788Z,28.67
2022-12-18T17:14:06.226Z,24.95
2022-12-18T17:16:32.683Z,28.60
2022-12-18T17:18:59.791Z,33.88
2022-12-18T17:21:26.085Z,33.55
2022-12-18T17:23:52.397Z,33.70
2022-12-18T17:26:18.661Z,29.95
2022-12-18T17:28:45.011Z,31.75
2022-12-18T17:31:29.910Z,27.92
2022-12-18T17:33:56.808Z,28.33
2022-12-18T17:36:23.357Z,28.85
2022-12-18T17:38:50.830Z,31.15
2022-12-18T17:41:17.153Z,29.33
2022-12-18T17:43:45.895Z,31.48
2022-12-18T17:46:13.696Z,29.73
2022-12-18T17:48:40.080Z,27.52
2022-12-18T17:51:07.291Z,25.85
2022-12-18T17:53:34.582Z,30.67
2022-12-18T17:56:01.775Z,26.80
2022-12-18T17:58:28.812Z,28.38
2022-12-18T18:00:55.584Z,28.13
2022-12-18T18:03:22.109Z,26.95
2022-12-18T18:05:48.849Z,26.08
2022-12-18T18:08:15.308Z,34.03
2022-12-18T18:10:41.660Z,29.92
2022-12-18T18:13:39.690Z,27.23
2022-12-18T18:16:09.444Z,28.40
2022-12-18T18:18:36.172Z,28.13
2022-12-18T18:21:06.950Z,24.48
2022-12-18T18:23:34.438Z,27.23
2022-12-18T18:26:04.149Z,31.33
2022-12-18T18:28:30.613Z,28.80
2022-12-18T18:30:56.944Z,28.50
2022-12-18T18:33:23.288Z,30.35
2022-12-18T18:35:54.170Z,31.63
2022-12-18T18:38:21.370Z,28.42
2022-12-18T18:40:47.763Z,26.98
2022-12-18T18:43:14.164Z,34.70
2022-12-18T18:45:40.461Z,30.58
2022-12-18T18:48:08.546Z,32.47
2022-12-18T18:50:35.228Z,31.90
2022-12-18T18:53:01.748Z,29.52
2022-12-18T18:55:29.066Z,31.17
2022-12-18T18:57:55.399Z,31.15
2022-12-18T19:00:22.019Z,30.75
2022-12-18T19:02:49.493Z,26.70
2022-12-18T19:05:16.485Z,30.85
2022-12-18T19:07:43.040Z,30.50
2022-12-18T19:10:10.509Z,29.75
2022-12-18T19:12:55.861Z,33.03
2022-12-18T19:15:22.321Z,30.25
2022-12-18T19:17:49.008Z,32.83
2022-12-18T19:20:15.712Z,31.85
2022-12-18T19:22:42.514Z,32.88
2022-12-18T19:25:09.830Z,29.48
2022-12-18T19:27:38.900Z,32.25
2022-12-18T19:30:05.722Z,30.05
2022-12-18T19:32:32.149Z,30.55
2022-12-18T19:34:59.389Z,31.85
2022-12-18T19:37:27.147Z,31.38
2022-12-18T19:39:54.881Z,27.70
2022-12-18T19:42:28.192Z,37.92
2022-12-18T19:44:56.375Z,32.47
2022-12-18T19:47:22.740Z,33.92
2022-12-18T19:49:49.161Z,31.67
2022-12-18T19:52:16.376Z,33.30
2022-12-18T19:54:42.803Z,28.83
2022-12-18T19:57:11.461Z,32.00
2022-12-18T19:59:39.048Z,31.23
2022-12-18T20:02:08.685Z,32.20
2022-12-18T20:04:35.123Z,30.40
2022-12-18T20:07:01.642Z,34.92
2022-12-18T20:09:28.305Z,31.58
2022-12-18T20:11:55.089Z,35.10
2022-12-18T20:14:23.495Z,40.45
2022-12-18T20:16:50.859Z,42.50
2022-12-18T20:19:17.951Z,37.10
2022-12-18T20:21:44.674Z,36.65
2022-12-18T20:24:11.376Z,35.05
2022-12-18T20:26:38.025Z,36.65
2022-12-18T20:29:04.372Z,34.88
2022-12-18T20:31:30.895Z,32.58
2022-12-18T20:34:00.319Z,32.53
2022-12-18T20:36:29.505Z,35.25
2022-12-18T20:39:01.499Z,34.30
2022-12-18T20:41:37.446Z,37.10
2022-12-18T20:44:05.485Z,37.72
2022-12-18T20:46:33.800Z,32.72
2022-12-18T20:49:00.423Z,36.53
2022-12-18T20:51:28.211Z,34.38
2022-12-18T20:53:54.725Z,36.35
2022-12-18T20:56:22.092Z,37.78
2022-12-18T20:58:54.850Z,36.60
2022-12-18T21:01:22.520Z,37.95
2022-12-18T21:03:49.491Z,44.47
2022-12-18T21:06:17.287Z,33.67
2022-12-18T21:08:43.870Z,39.03
2022-12-18T21:11:34.958Z,35.47
2022-12-18T21:16:27.703Z,33.50
2022-12-18T21:18:55.046Z,40.00
2022-12-18T21:21:26.212Z,36.03
2022-12-18T21:23:53.471Z,34.97
2022-12-18T21:26:24.472Z,36.50
2022-12-18T21:28:58.073Z,40.00
2022-12-18T21:31:25.303Z,43.90
2022-12-18T21:33:51.893Z,42.55
2022-12-18T21:36:20.484Z,37.05
2022-12-18T21:38:46.872Z,40.38
2022-12-18T21:41:41.855Z,38.50
2022-12-18T21:44:10.704Z,42.53
2022-12-18T21:46:38.378Z,38.70
2022-12-18T21:49:05.788Z,37.05
2022-12-18T21:51:32.819Z,36.08
2022-12-18T21:53:59.391Z,38.38
2022-12-18T21:56:42.218Z,42.75
2022-12-18T21:59:08.687Z,38.47
2022-12-18T22:01:37.467Z,41.92
2022-12-18T22:04:04.245Z,40.67
2022-12-18T22:06:30.913Z,38.17
2022-12-18T22:08:58.051Z,37.95
2022-12-18T22:11:24.702Z,43.20
2022-12-18T22:13:51.082Z,41.33
2022-12-18T22:16:17.499Z,44.92
2022-12-18T22:18:43.841Z,48.72
2022-12-18T22:21:25.492Z,43.35
2022-12-18T22:24:02.942Z,45.05
2022-12-18T22:26:33.835Z,39.58
2022-12-18T22:29:21.543Z,46.30
2022-12-18T22:31:47.923Z,40.13
2022-12-18T22:34:14.372Z,42.20
2022-12-18T22:36:47.924Z,44.17
2022-12-18T22:39:15.671Z,43.28
2022-12-18T22:41:42.494Z,41.45
2022-12-18T22:44:08.947Z,44.78
2022-12-18T22:46:39.010Z,45.25
2022-12-18T22:49:05.896Z,42.10
2022-12-18T22:51:32.339Z,42.20
2022-12-18T22:53:58.911Z,49.13
2022-12-18T22:56:25.402Z,41.30
2022-12-18T22:58:51.937Z,50.55
2022-12-18T23:01:22.830Z,49.53
2022-12-18T23:03:49.913Z,41.38
2022-12-18T23:06:16.562Z,42.08
2022-12-18T23:08:43.532Z,41.03
2022-12-18T23:11:10.340Z,45.65
2022-12-18T23:13:37.146Z,44.83
2022-12-18T23:16:07.524Z,42.97
2022-12-18T23:18:34.216Z,46.38
2022-12-18T23:21:04.568Z,41.85
2022-12-18T23:23:33.747Z,40.50
2022-12-18T23:26:00.991Z,50.40
2022-12-18T23:28:27.428Z,44.25
2022-12-18T23:31:06.158Z,47.50
2022-12-18T23:33:32.868Z,44.28
2022-12-18T23:36:00.692Z,46.15
2022-12-18T23:38:27.319Z,45.53
2022-12-18T23:40:54.854Z,38.55
2022-12-18T23:43:23.406Z,51.65
2022-12-18T23:45:55.494Z,45.95
2022-12-18T23:48:22.790Z,49.40
2022-12-18T23:50:49.169Z,48.47
2022-12-18T23:53:15.503Z,50.63
2022-12-18T23:55:42.827Z,52.92
2022-12-18T23:58:15.770Z,50.92
